sensor_id;sensor_type;location;lat;lon;timestamp;P1;durP1;ratioP1;P2;durP2;ratioP2
12535;SDS011;6334;48.696;2.114;2022-09-24T00:01:47;7.60;;;4.30;;
12535;SDS011;6334;48.696;2.114;2022-09-24T00:04:19;4.43;;;4.03;;
12535;SDS011;6334;48.696;2.114;2022-09-24T00:06:49;6.17;;;4.37;;
12535;SDS011;6334;48.696;2.114;2022-09-24T00:09:20;5.50;;;4.30;;
12535;SDS011;6334;48.696;2.114;2022-09-24T00:11:50;6.37;;;4.47;;
12535;SDS011;6334;48.696;2.114;2022-09-24T00:14:21;6.77;;;4.73;;
12535;SDS011;6334;48.696;2.114;2022-09-24T00:16:51;5.73;;;4.60;;
12535;SDS011;6334;48.696;2.114;2022-09-24T00:19:22;5.80;;;4.40;;
12535;SDS011;6334;48.696;2.114;2022-09-24T00:21:52;6.17;;;4.50;;
12535;SDS011;6334;48.696;2.114;2022-09-24T00:24:22;6.10;;;4.63;;
12535;SDS011;6334;48.696;2.114;2022-09-24T00:27:11;5.57;;;4.57;;
12535;SDS011;6334;48.696;2.114;2022-09-24T00:29:41;6.80;;;4.63;;
12535;SDS011;6334;48.696;2.114;2022-09-24T00:32:12;7.23;;;4.67;;
12535;SDS011;6334;48.696;2.114;2022-09-24T00:34:42;6.97;;;4.77;;
12535;SDS011;6334;48.696;2.114;2022-09-24T00:37:13;5.53;;;4.67;;
12535;SDS011;6334;48.696;2.114;2022-09-24T00:39:43;6.93;;;4.53;;
12535;SDS011;6334;48.696;2.114;2022-09-24T00:42:14;6.33;;;4.83;;
12535;SDS011;6334;48.696;2.114;2022-09-24T00:47:25;5.73;;;4.50;;
12535;SDS011;6334;48.696;2.114;2022-09-24T00:49:57;6.07;;;4.50;;
12535;SDS011;6334;48.696;2.114;2022-09-24T00:52:24;7.03;;;4.90;;
12535;SDS011;6334;48.696;2.114;2022-09-24T00:54:55;5.67;;;4.30;;
12535;SDS011;6334;48.696;2.114;2022-09-24T00:57:25;6.07;;;4.43;;
12535;SDS011;6334;48.696;2.114;2022-09-24T00:59:55;6.27;;;4.60;;
12535;SDS011;6334;48.696;2.114;2022-09-24T01:02:26;5.27;;;4.20;;
12535;SDS011;6334;48.696;2.114;2022-09-24T01:04:56;6.33;;;4.67;;
12535;SDS011;6334;48.696;2.114;2022-09-24T01:07:27;7.83;;;4.70;;
12535;SDS011;6334;48.696;2.114;2022-09-24T01:09:57;6.47;;;4.00;;
12535;SDS011;6334;48.696;2.114;2022-09-24T01:12:37;6.13;;;4.33;;
12535;SDS011;6334;48.696;2.114;2022-09-24T01:15:07;5.37;;;4.33;;
12535;SDS011;6334;48.696;2.114;2022-09-24T01:20:24;6.40;;;4.60;;
12535;SDS011;6334;48.696;2.114;2022-09-24T01:23:06;4.73;;;4.10;;
12535;SDS011;6334;48.696;2.114;2022-09-24T01:25:40;7.10;;;4.70;;
12535;SDS011;6334;48.696;2.114;2022-09-24T01:30:47;6.17;;;4.30;;
12535;SDS011;6334;48.696;2.114;2022-09-24T01:33:19;5.90;;;4.57;;
12535;SDS011;6334;48.696;2.114;2022-09-24T01:35:52;5.67;;;4.10;;
12535;SDS011;6334;48.696;2.114;2022-09-24T01:38:22;6.90;;;4.73;;
12535;SDS011;6334;48.696;2.114;2022-09-24T01:40:51;7.53;;;4.50;;
12535;SDS011;6334;48.696;2.114;2022-09-24T01:43:23;7.30;;;5.07;;
12535;SDS011;6334;48.696;2.114;2022-09-24T01:45:54;5.30;;;4.17;;
12535;SDS011;6334;48.696;2.114;2022-09-24T01:48:26;6.57;;;4.60;;
12535;SDS011;6334;48.696;2.114;2022-09-24T01:51:01;8.23;;;5.00;;
12535;SDS011;6334;48.696;2.114;2022-09-24T01:53:30;6.90;;;4.70;;
12535;SDS011;6334;48.696;2.114;2022-09-24T01:56:01;6.90;;;4.70;;
12535;SDS011;6334;48.696;2.114;2022-09-24T01:58:32;5.00;;;4.27;;
12535;SDS011;6334;48.696;2.114;2022-09-24T02:01:09;6.83;;;4.70;;
12535;SDS011;6334;48.696;2.114;2022-09-24T02:03:40;6.23;;;4.67;;
12535;SDS011;6334;48.696;2.114;2022-09-24T02:06:09;6.07;;;4.63;;
12535;SDS011;6334;48.696;2.114;2022-09-24T02:08:42;6.73;;;4.63;;
12535;SDS011;6334;48.696;2.114;2022-09-24T02:11:18;6.23;;;4.70;;
12535;SDS011;6334;48.696;2.114;2022-09-24T02:13:58;6.93;;;4.80;;
12535;SDS011;6334;48.696;2.114;2022-09-24T02:16:20;6.47;;;4.77;;
12535;SDS011;6334;48.696;2.114;2022-09-24T02:18:51;6.57;;;4.80;;
12535;SDS011;6334;48.696;2.114;2022-09-24T02:21:21;5.50;;;4.43;;
12535;SDS011;6334;48.696;2.114;2022-09-24T02:23:55;7.17;;;4.93;;
12535;SDS011;6334;48.696;2.114;2022-09-24T02:26:24;6.53;;;4.70;;
12535;SDS011;6334;48.696;2.114;2022-09-24T02:28:55;7.33;;;4.90;;
12535;SDS011;6334;48.696;2.114;2022-09-24T02:31:29;6.37;;;4.80;;
12535;SDS011;6334;48.696;2.114;2022-09-24T02:33:59;7.43;;;4.90;;
12535;SDS011;6334;48.696;2.114;2022-09-24T02:36:50;7.43;;;4.80;;
12535;SDS011;6334;48.696;2.114;2022-09-24T02:39:17;5.40;;;4.47;;
12535;SDS011;6334;48.696;2.114;2022-09-24T02:41:47;8.47;;;4.60;;
12535;SDS011;6334;48.696;2.114;2022-09-24T02:44:17;6.43;;;4.93;;
12535;SDS011;6334;48.696;2.114;2022-09-24T02:46:48;6.47;;;4.83;;
12535;SDS011;6334;48.696;2.114;2022-09-24T02:49:18;6.60;;;4.80;;
12535;SDS011;6334;48.696;2.114;2022-09-24T02:51:50;5.83;;;4.53;;
12535;SDS011;6334;48.696;2.114;2022-09-24T02:54:21;5.73;;;4.60;;
12535;SDS011;6334;48.696;2.114;2022-09-24T02:56:51;6.47;;;4.83;;
12535;SDS011;6334;48.696;2.114;2022-09-24T02:59:22;7.43;;;5.00;;
12535;SDS011;6334;48.696;2.114;2022-09-24T03:01:53;7.23;;;4.60;;
12535;SDS011;6334;48.696;2.114;2022-09-24T03:04:25;6.33;;;4.60;;
12535;SDS011;6334;48.696;2.114;2022-09-24T03:06:55;7.50;;;4.77;;
12535;SDS011;6334;48.696;2.114;2022-09-24T03:09:26;6.70;;;4.97;;
12535;SDS011;6334;48.696;2.114;2022-09-24T03:11:56;6.63;;;4.87;;
12535;SDS011;6334;48.696;2.114;2022-09-24T03:14:27;4.67;;;4.13;;
12535;SDS011;6334;48.696;2.114;2022-09-24T03:16:57;6.47;;;4.73;;
12535;SDS011;6334;48.696;2.114;2022-09-24T03:19:28;7.67;;;4.77;;
12535;SDS011;6334;48.696;2.114;2022-09-24T03:21:58;6.57;;;4.83;;
12535;SDS011;6334;48.696;2.114;2022-09-24T03:24:29;6.43;;;4.80;;
12535;SDS011;6334;48.696;2.114;2022-09-24T03:26:59;6.87;;;4.70;;
12535;SDS011;6334;48.696;2.114;2022-09-24T03:29:30;8.50;;;4.83;;
12535;SDS011;6334;48.696;2.114;2022-09-24T03:32:18;7.07;;;4.83;;
12535;SDS011;6334;48.696;2.114;2022-09-24T03:34:49;6.73;;;4.37;;
12535;SDS011;6334;48.696;2.114;2022-09-24T03:37:19;6.70;;;4.60;;
12535;SDS011;6334;48.696;2.114;2022-09-24T03:39:49;5.03;;;4.17;;
12535;SDS011;6334;48.696;2.114;2022-09-24T03:42:20;6.17;;;4.50;;
12535;SDS011;6334;48.696;2.114;2022-09-24T03:44:50;6.70;;;4.70;;
12535;SDS011;6334;48.696;2.114;2022-09-24T03:47:21;6.87;;;4.27;;
12535;SDS011;6334;48.696;2.114;2022-09-24T03:49:51;5.33;;;4.23;;
12535;SDS011;6334;48.696;2.114;2022-09-24T03:52:22;6.20;;;4.60;;
12535;SDS011;6334;48.696;2.114;2022-09-24T03:54:52;5.77;;;4.47;;
12535;SDS011;6334;48.696;2.114;2022-09-24T03:57:23;7.87;;;4.97;;
12535;SDS011;6334;48.696;2.114;2022-09-24T03:59:53;5.40;;;4.47;;
12535;SDS011;6334;48.696;2.114;2022-09-24T04:02:24;5.73;;;4.60;;
12535;SDS011;6334;48.696;2.114;2022-09-24T04:04:54;6.43;;;4.53;;
12535;SDS011;6334;48.696;2.114;2022-09-24T04:07:24;7.67;;;4.73;;
12535;SDS011;6334;48.696;2.114;2022-09-24T04:09:55;5.80;;;4.13;;
12535;SDS011;6334;48.696;2.114;2022-09-24T04:12:25;6.87;;;4.53;;
12535;SDS011;6334;48.696;2.114;2022-09-24T04:14:56;6.27;;;4.60;;
12535;SDS011;6334;48.696;2.114;2022-09-24T04:17:26;5.43;;;4.50;;
12535;SDS011;6334;48.696;2.114;2022-09-24T04:20:00;6.40;;;4.40;;
12535;SDS011;6334;48.696;2.114;2022-09-24T04:22:30;5.73;;;4.40;;
12535;SDS011;6334;48.696;2.114;2022-09-24T04:25:01;5.70;;;4.30;;
12535;SDS011;6334;48.696;2.114;2022-09-24T04:27:32;6.20;;;4.80;;
12535;SDS011;6334;48.696;2.114;2022-09-24T04:30:02;5.10;;;4.40;;
12535;SDS011;6334;48.696;2.114;2022-09-24T04:32:33;6.57;;;4.67;;
12535;SDS011;6334;48.696;2.114;2022-09-24T04:35:03;7.00;;;4.90;;
12535;SDS011;6334;48.696;2.114;2022-09-24T04:37:34;6.67;;;4.70;;
12535;SDS011;6334;48.696;2.114;2022-09-24T04:40:04;6.37;;;4.53;;
12535;SDS011;6334;48.696;2.114;2022-09-24T04:42:35;6.00;;;4.63;;
12535;SDS011;6334;48.696;2.114;2022-09-24T04:45:06;5.83;;;4.43;;
12535;SDS011;6334;48.696;2.114;2022-09-24T04:47:36;5.80;;;4.57;;
12535;SDS011;6334;48.696;2.114;2022-09-24T04:50:07;4.83;;;4.10;;
12535;SDS011;6334;48.696;2.114;2022-09-24T04:52:37;5.37;;;4.40;;
12535;SDS011;6334;48.696;2.114;2022-09-24T04:55:07;6.37;;;4.70;;
12535;SDS011;6334;48.696;2.114;2022-09-24T04:57:38;6.07;;;4.87;;
12535;SDS011;6334;48.696;2.114;2022-09-24T05:00:10;7.03;;;5.00;;
12535;SDS011;6334;48.696;2.114;2022-09-24T05:02:39;7.20;;;4.57;;
12535;SDS011;6334;48.696;2.114;2022-09-24T05:05:10;6.60;;;5.10;;
12535;SDS011;6334;48.696;2.114;2022-09-24T05:07:41;7.20;;;5.13;;
12535;SDS011;6334;48.696;2.114;2022-09-24T05:10:11;8.73;;;5.33;;
12535;SDS011;6334;48.696;2.114;2022-09-24T05:12:43;7.13;;;5.27;;
12535;SDS011;6334;48.696;2.114;2022-09-24T05:15:13;7.57;;;5.27;;
12535;SDS011;6334;48.696;2.114;2022-09-24T05:17:44;6.60;;;4.93;;
12535;SDS011;6334;48.696;2.114;2022-09-24T05:20:14;6.30;;;4.97;;
12535;SDS011;6334;48.696;2.114;2022-09-24T05:22:45;8.93;;;5.37;;
12535;SDS011;6334;48.696;2.114;2022-09-24T05:25:16;7.00;;;5.17;;
12535;SDS011;6334;48.696;2.114;2022-09-24T05:27:51;7.43;;;5.27;;
12535;SDS011;6334;48.696;2.114;2022-09-24T05:30:19;7.50;;;4.97;;
12535;SDS011;6334;48.696;2.114;2022-09-24T05:32:49;6.03;;;4.70;;
12535;SDS011;6334;48.696;2.114;2022-09-24T05:35:20;6.07;;;4.67;;
12535;SDS011;6334;48.696;2.114;2022-09-24T05:37:52;7.83;;;4.70;;
12535;SDS011;6334;48.696;2.114;2022-09-24T05:40:24;7.07;;;5.13;;
12535;SDS011;6334;48.696;2.114;2022-09-24T05:43:13;5.83;;;4.67;;
12535;SDS011;6334;48.696;2.114;2022-09-24T05:45:43;6.73;;;5.03;;
12535;SDS011;6334;48.696;2.114;2022-09-24T05:48:16;6.00;;;4.90;;
12535;SDS011;6334;48.696;2.114;2022-09-24T05:50:46;5.17;;;4.40;;
12535;SDS011;6334;48.696;2.114;2022-09-24T05:53:17;6.90;;;4.90;;
12535;SDS011;6334;48.696;2.114;2022-09-24T05:55:47;7.83;;;5.30;;
12535;SDS011;6334;48.696;2.114;2022-09-24T05:58:18;8.30;;;5.60;;
12535;SDS011;6334;48.696;2.114;2022-09-24T06:00:48;8.13;;;5.50;;
12535;SDS011;6334;48.696;2.114;2022-09-24T06:03:19;6.90;;;4.87;;
12535;SDS011;6334;48.696;2.114;2022-09-24T06:05:49;6.57;;;4.97;;
12535;SDS011;6334;48.696;2.114;2022-09-24T06:08:21;7.13;;;5.00;;
12535;SDS011;6334;48.696;2.114;2022-09-24T06:10:51;6.60;;;5.07;;
12535;SDS011;6334;48.696;2.114;2022-09-24T06:13:21;7.63;;;5.27;;
12535;SDS011;6334;48.696;2.114;2022-09-24T06:15:53;5.43;;;4.87;;
12535;SDS011;6334;48.696;2.114;2022-09-24T06:18:23;7.07;;;4.90;;
12535;SDS011;6334;48.696;2.114;2022-09-24T06:20:53;8.17;;;5.27;;
12535;SDS011;6334;48.696;2.114;2022-09-24T06:23:24;8.33;;;5.00;;
12535;SDS011;6334;48.696;2.114;2022-09-24T06:25:54;6.67;;;4.70;;
12535;SDS011;6334;48.696;2.114;2022-09-24T06:28:24;7.43;;;5.17;;
12535;SDS011;6334;48.696;2.114;2022-09-24T06:30:57;6.53;;;5.10;;
12535;SDS011;6334;48.696;2.114;2022-09-24T06:33:25;6.30;;;4.83;;
12535;SDS011;6334;48.696;2.114;2022-09-24T06:35:59;6.37;;;5.17;;
12535;SDS011;6334;48.696;2.114;2022-09-24T06:38:29;7.40;;;5.40;;
12535;SDS011;6334;48.696;2.114;2022-09-24T06:41:00;5.93;;;5.00;;
12535;SDS011;6334;48.696;2.114;2022-09-24T06:43:30;7.77;;;5.30;;
12535;SDS011;6334;48.696;2.114;2022-09-24T06:46:00;6.47;;;4.87;;
12535;SDS011;6334;48.696;2.114;2022-09-24T06:48:32;8.03;;;5.30;;
12535;SDS011;6334;48.696;2.114;2022-09-24T06:51:03;7.60;;;5.20;;
12535;SDS011;6334;48.696;2.114;2022-09-24T06:53:33;6.53;;;5.30;;
12535;SDS011;6334;48.696;2.114;2022-09-24T06:56:04;7.27;;;5.20;;
12535;SDS011;6334;48.696;2.114;2022-09-24T06:58:34;8.40;;;5.43;;
12535;SDS011;6334;48.696;2.114;2022-09-24T07:01:06;7.43;;;5.20;;
12535;SDS011;6334;48.696;2.114;2022-09-24T07:03:36;6.37;;;4.90;;
12535;SDS011;6334;48.696;2.114;2022-09-24T07:06:07;7.23;;;5.17;;
12535;SDS011;6334;48.696;2.114;2022-09-24T07:08:37;7.20;;;5.57;;
12535;SDS011;6334;48.696;2.114;2022-09-24T07:11:08;5.97;;;5.17;;
12535;SDS011;6334;48.696;2.114;2022-09-24T07:13:40;7.73;;;5.37;;
12535;SDS011;6334;48.696;2.114;2022-09-24T07:16:10;8.00;;;5.40;;
12535;SDS011;6334;48.696;2.114;2022-09-24T07:18:40;8.50;;;5.53;;
12535;SDS011;6334;48.696;2.114;2022-09-24T07:21:11;8.43;;;5.40;;
12535;SDS011;6334;48.696;2.114;2022-09-24T07:23:41;8.27;;;5.47;;
12535;SDS011;6334;48.696;2.114;2022-09-24T07:26:12;7.00;;;4.97;;
12535;SDS011;6334;48.696;2.114;2022-09-24T07:28:42;8.00;;;5.30;;
12535;SDS011;6334;48.696;2.114;2022-09-24T07:31:13;7.13;;;5.13;;
12535;SDS011;6334;48.696;2.114;2022-09-24T07:33:43;5.97;;;4.93;;
12535;SDS011;6334;48.696;2.114;2022-09-24T07:36:14;7.77;;;5.20;;
12535;SDS011;6334;48.696;2.114;2022-09-24T07:38:44;7.13;;;5.07;;
12535;SDS011;6334;48.696;2.114;2022-09-24T07:41:15;10.27;;;4.97;;
12535;SDS011;6334;48.696;2.114;2022-09-24T07:43:45;6.77;;;5.13;;
12535;SDS011;6334;48.696;2.114;2022-09-24T07:46:16;6.97;;;5.13;;
12535;SDS011;6334;48.696;2.114;2022-09-24T07:48:46;6.50;;;4.90;;
12535;SDS011;6334;48.696;2.114;2022-09-24T07:51:17;5.90;;;4.23;;
12535;SDS011;6334;48.696;2.114;2022-09-24T07:53:48;7.97;;;5.37;;
12535;SDS011;6334;48.696;2.114;2022-09-24T07:56:19;7.63;;;5.13;;
12535;SDS011;6334;48.696;2.114;2022-09-24T07:58:49;5.60;;;4.97;;
12535;SDS011;6334;48.696;2.114;2022-09-24T08:01:20;7.23;;;5.23;;
12535;SDS011;6334;48.696;2.114;2022-09-24T08:03:50;7.33;;;5.27;;
12535;SDS011;6334;48.696;2.114;2022-09-24T08:06:20;8.00;;;5.50;;
12535;SDS011;6334;48.696;2.114;2022-09-24T08:08:51;8.40;;;5.47;;
12535;SDS011;6334;48.696;2.114;2022-09-24T08:11:21;8.37;;;5.00;;
12535;SDS011;6334;48.696;2.114;2022-09-24T08:13:52;6.77;;;4.93;;
12535;SDS011;6334;48.696;2.114;2022-09-24T08:16:23;5.53;;;4.57;;
12535;SDS011;6334;48.696;2.114;2022-09-24T08:18:53;7.10;;;5.20;;
12535;SDS011;6334;48.696;2.114;2022-09-24T08:21:23;6.07;;;4.70;;
12535;SDS011;6334;48.696;2.114;2022-09-24T08:23:54;6.87;;;5.40;;
12535;SDS011;6334;48.696;2.114;2022-09-24T08:26:24;9.07;;;5.40;;
12535;SDS011;6334;48.696;2.114;2022-09-24T08:28:55;7.30;;;5.33;;
12535;SDS011;6334;48.696;2.114;2022-09-24T08:31:25;8.67;;;5.20;;
12535;SDS011;6334;48.696;2.114;2022-09-24T08:33:56;5.83;;;5.03;;
12535;SDS011;6334;48.696;2.114;2022-09-24T08:36:26;8.07;;;5.03;;
12535;SDS011;6334;48.696;2.114;2022-09-24T08:38:57;7.43;;;5.13;;
12535;SDS011;6334;48.696;2.114;2022-09-24T08:44:19;6.90;;;5.03;;
12535;SDS011;6334;48.696;2.114;2022-09-24T08:46:49;7.23;;;5.20;;
12535;SDS011;6334;48.696;2.114;2022-09-24T08:49:42;8.27;;;4.90;;
12535;SDS011;6334;48.696;2.114;2022-09-24T08:54:49;8.37;;;4.67;;
12535;SDS011;6334;48.696;2.114;2022-09-24T08:57:20;5.63;;;4.63;;
12535;SDS011;6334;48.696;2.114;2022-09-24T08:59:50;4.77;;;4.27;;
12535;SDS011;6334;48.696;2.114;2022-09-24T09:10:26;6.60;;;4.67;;
12535;SDS011;6334;48.696;2.114;2022-09-24T09:13:20;6.10;;;4.93;;
12535;SDS011;6334;48.696;2.114;2022-09-24T09:15:34;9.03;;;5.10;;
12535;SDS011;6334;48.696;2.114;2022-09-24T09:18:09;5.90;;;4.63;;
12535;SDS011;6334;48.696;2.114;2022-09-24T09:20:42;6.67;;;4.80;;
12535;SDS011;6334;48.696;2.114;2022-09-24T09:25:45;6.70;;;4.73;;
12535;SDS011;6334;48.696;2.114;2022-09-24T09:28:14;6.27;;;4.80;;
12535;SDS011;6334;48.696;2.114;2022-09-24T09:39:14;7.73;;;5.70;;
12535;SDS011;6334;48.696;2.114;2022-09-24T09:44:38;8.23;;;5.70;;
12535;SDS011;6334;48.696;2.114;2022-09-24T09:53:02;7.70;;;5.80;;
12535;SDS011;6334;48.696;2.114;2022-09-24T09:55:33;8.07;;;5.67;;
12535;SDS011;6334;48.696;2.114;2022-09-24T10:00:44;8.20;;;5.60;;
12535;SDS011;6334;48.696;2.114;2022-09-24T10:03:30;7.93;;;5.77;;
12535;SDS011;6334;48.696;2.114;2022-09-24T10:06:00;9.13;;;5.97;;
12535;SDS011;6334;48.696;2.114;2022-09-24T10:11:51;7.47;;;5.17;;
12535;SDS011;6334;48.696;2.114;2022-09-24T10:14:32;10.60;;;5.57;;
12535;SDS011;6334;48.696;2.114;2022-09-24T10:19:49;7.67;;;5.53;;
12535;SDS011;6334;48.696;2.114;2022-09-24T10:22:22;6.67;;;4.97;;
12535;SDS011;6334;48.696;2.114;2022-09-24T10:24:52;6.97;;;4.90;;
12535;SDS011;6334;48.696;2.114;2022-09-24T10:27:29;6.03;;;4.73;;
12535;SDS011;6334;48.696;2.114;2022-09-24T10:30:03;7.23;;;5.30;;
12535;SDS011;6334;48.696;2.114;2022-09-24T10:32:56;6.17;;;5.10;;
12535;SDS011;6334;48.696;2.114;2022-09-24T10:35:29;8.67;;;6.00;;
12535;SDS011;6334;48.696;2.114;2022-09-24T10:37:59;8.77;;;6.00;;
12535;SDS011;6334;48.696;2.114;2022-09-24T10:40:36;7.40;;;5.50;;
12535;SDS011;6334;48.696;2.114;2022-09-24T10:43:01;7.37;;;5.57;;
12535;SDS011;6334;48.696;2.114;2022-09-24T10:48:26;7.13;;;5.40;;
12535;SDS011;6334;48.696;2.114;2022-09-24T10:53:38;7.37;;;5.40;;
12535;SDS011;6334;48.696;2.114;2022-09-24T10:56:11;7.57;;;4.43;;
12535;SDS011;6334;48.696;2.114;2022-09-24T10:58:46;7.63;;;5.20;;
12535;SDS011;6334;48.696;2.114;2022-09-24T11:01:27;7.50;;;5.73;;
12535;SDS011;6334;48.696;2.114;2022-09-24T11:17:37;8.07;;;6.13;;
12535;SDS011;6334;48.696;2.114;2022-09-24T11:20:28;6.67;;;5.13;;
12535;SDS011;6334;48.696;2.114;2022-09-24T11:37:17;8.40;;;5.80;;
12535;SDS011;6334;48.696;2.114;2022-09-24T11:42:58;6.27;;;5.23;;
12535;SDS011;6334;48.696;2.114;2022-09-24T11:46:02;9.37;;;5.67;;
12535;SDS011;6334;48.696;2.114;2022-09-24T11:48:26;7.57;;;5.40;;
12535;SDS011;6334;48.696;2.114;2022-09-24T11:51:00;6.80;;;5.30;;
12535;SDS011;6334;48.696;2.114;2022-09-24T11:53:38;6.77;;;5.30;;
12535;SDS011;6334;48.696;2.114;2022-09-24T11:56:23;7.67;;;5.53;;
12535;SDS011;6334;48.696;2.114;2022-09-24T11:58:55;8.63;;;5.83;;
12535;SDS011;6334;48.696;2.114;2022-09-24T12:01:28;8.27;;;5.53;;
12535;SDS011;6334;48.696;2.114;2022-09-24T12:04:01;5.47;;;4.87;;
12535;SDS011;6334;48.696;2.114;2022-09-24T12:06:40;5.43;;;4.53;;
12535;SDS011;6334;48.696;2.114;2022-09-24T12:11:52;6.13;;;4.97;;
12535;SDS011;6334;48.696;2.114;2022-09-24T12:14:25;9.13;;;5.93;;
12535;SDS011;6334;48.696;2.114;2022-09-24T12:17:02;6.27;;;5.23;;
12535;SDS011;6334;48.696;2.114;2022-09-24T12:19:32;7.03;;;4.57;;
12535;SDS011;6334;48.696;2.114;2022-09-24T12:22:01;6.30;;;4.57;;
12535;SDS011;6334;48.696;2.114;2022-09-24T12:24:33;6.47;;;4.83;;
12535;SDS011;6334;48.696;2.114;2022-09-24T12:27:12;8.27;;;5.63;;
12535;SDS011;6334;48.696;2.114;2022-09-24T12:29:44;6.30;;;4.93;;
12535;SDS011;6334;48.696;2.114;2022-09-24T12:32:46;7.47;;;5.10;;
12535;SDS011;6334;48.696;2.114;2022-09-24T12:37:59;6.67;;;5.33;;
12535;SDS011;6334;48.696;2.114;2022-09-24T12:43:28;7.30;;;4.93;;
12535;SDS011;6334;48.696;2.114;2022-09-24T12:45:55;6.37;;;5.10;;
12535;SDS011;6334;48.696;2.114;2022-09-24T12:48:28;7.83;;;5.27;;
12535;SDS011;6334;48.696;2.114;2022-09-24T12:50:58;6.13;;;4.97;;
12535;SDS011;6334;48.696;2.114;2022-09-24T12:53:32;8.03;;;4.93;;
12535;SDS011;6334;48.696;2.114;2022-09-24T12:56:02;9.73;;;5.20;;
12535;SDS011;6334;48.696;2.114;2022-09-24T12:58:41;6.03;;;4.80;;
12535;SDS011;6334;48.696;2.114;2022-09-24T13:06:44;7.43;;;4.60;;
12535;SDS011;6334;48.696;2.114;2022-09-24T13:09:25;5.50;;;5.00;;
12535;SDS011;6334;48.696;2.114;2022-09-24T13:14:34;6.00;;;4.63;;
12535;SDS011;6334;48.696;2.114;2022-09-24T13:17:05;5.97;;;4.97;;
12535;SDS011;6334;48.696;2.114;2022-09-24T13:19:37;4.97;;;4.30;;
12535;SDS011;6334;48.696;2.114;2022-09-24T13:27:39;3.80;;;3.50;;
12535;SDS011;6334;48.696;2.114;2022-09-24T13:32:52;4.20;;;3.80;;
12535;SDS011;6334;48.696;2.114;2022-09-24T13:35:24;5.60;;;4.30;;
12535;SDS011;6334;48.696;2.114;2022-09-24T13:37:58;4.53;;;3.80;;
12535;SDS011;6334;48.696;2.114;2022-09-24T13:40:27;3.67;;;3.37;;
12535;SDS011;6334;48.696;2.114;2022-09-24T13:43:02;3.50;;;3.20;;
12535;SDS011;6334;48.696;2.114;2022-09-24T13:45:32;3.57;;;3.27;;
12535;SDS011;6334;48.696;2.114;2022-09-24T13:48:12;3.97;;;3.47;;
12535;SDS011;6334;48.696;2.114;2022-09-24T13:50:42;3.53;;;3.23;;
12535;SDS011;6334;48.696;2.114;2022-09-24T13:55:51;4.20;;;3.80;;
12535;SDS011;6334;48.696;2.114;2022-09-24T13:58:34;11.67;;;6.70;;
12535;SDS011;6334;48.696;2.114;2022-09-24T14:01:02;11.70;;;6.33;;
12535;SDS011;6334;48.696;2.114;2022-09-24T14:03:32;5.50;;;4.13;;
12535;SDS011;6334;48.696;2.114;2022-09-24T14:06:11;4.07;;;3.20;;
12535;SDS011;6334;48.696;2.114;2022-09-24T14:08:40;4.73;;;3.83;;
12535;SDS011;6334;48.696;2.114;2022-09-24T14:11:12;3.63;;;3.33;;
12535;SDS011;6334;48.696;2.114;2022-09-24T14:13:40;3.30;;;3.10;;
12535;SDS011;6334;48.696;2.114;2022-09-24T14:16:15;3.23;;;3.00;;
12535;SDS011;6334;48.696;2.114;2022-09-24T14:18:44;3.63;;;3.30;;
12535;SDS011;6334;48.696;2.114;2022-09-24T14:26:27;3.23;;;2.93;;
12535;SDS011;6334;48.696;2.114;2022-09-24T14:28:57;3.27;;;3.07;;
12535;SDS011;6334;48.696;2.114;2022-09-24T14:31:26;3.00;;;2.80;;
12535;SDS011;6334;48.696;2.114;2022-09-24T14:33:58;3.37;;;3.07;;
12535;SDS011;6334;48.696;2.114;2022-09-24T14:36:27;3.50;;;3.20;;
12535;SDS011;6334;48.696;2.114;2022-09-24T14:38:58;4.75;;;4.18;;
12535;SDS011;6334;48.696;2.114;2022-09-24T14:41:29;3.47;;;3.17;;
12535;SDS011;6334;48.696;2.114;2022-09-24T14:46:34;3.80;;;3.40;;
12535;SDS011;6334;48.696;2.114;2022-09-24T14:49:13;4.23;;;3.60;;
12535;SDS011;6334;48.696;2.114;2022-09-24T14:51:55;3.50;;;3.20;;
12535;SDS011;6334;48.696;2.114;2022-09-24T14:54:35;3.73;;;3.43;;
12535;SDS011;6334;48.696;2.114;2022-09-24T14:57:22;4.80;;;4.10;;
12535;SDS011;6334;48.696;2.114;2022-09-24T14:59:41;4.43;;;3.97;;
12535;SDS011;6334;48.696;2.114;2022-09-24T15:02:15;3.83;;;3.53;;
12535;SDS011;6334;48.696;2.114;2022-09-24T15:04:48;4.27;;;3.87;;
12535;SDS011;6334;48.696;2.114;2022-09-24T15:07:20;4.13;;;3.73;;
12535;SDS011;6334;48.696;2.114;2022-09-24T15:09:49;4.10;;;3.73;;
12535;SDS011;6334;48.696;2.114;2022-09-24T15:12:25;4.87;;;3.97;;
12535;SDS011;6334;48.696;2.114;2022-09-24T15:14:58;5.37;;;4.33;;
12535;SDS011;6334;48.696;2.114;2022-09-24T15:17:31;4.53;;;3.43;;
12535;SDS011;6334;48.696;2.114;2022-09-24T15:20:04;6.00;;;4.57;;
12535;SDS011;6334;48.696;2.114;2022-09-24T15:22:35;6.20;;;4.73;;
12535;SDS011;6334;48.696;2.114;2022-09-24T15:25:05;5.97;;;4.90;;
12535;SDS011;6334;48.696;2.114;2022-09-24T15:27:36;7.23;;;5.10;;
12535;SDS011;6334;48.696;2.114;2022-09-24T15:30:09;8.53;;;4.83;;
12535;SDS011;6334;48.696;2.114;2022-09-24T15:32:37;7.80;;;5.10;;
12535;SDS011;6334;48.696;2.114;2022-09-24T15:35:08;7.80;;;5.60;;
12535;SDS011;6334;48.696;2.114;2022-09-24T15:37:38;7.10;;;4.73;;
12535;SDS011;6334;48.696;2.114;2022-09-24T15:40:15;6.77;;;4.67;;
12535;SDS011;6334;48.696;2.114;2022-09-24T15:42:44;5.47;;;4.53;;
12535;SDS011;6334;48.696;2.114;2022-09-24T15:45:16;6.40;;;4.97;;
12535;SDS011;6334;48.696;2.114;2022-09-24T15:47:46;8.77;;;5.53;;
12535;SDS011;6334;48.696;2.114;2022-09-24T15:50:16;7.17;;;5.20;;
12535;SDS011;6334;48.696;2.114;2022-09-24T15:52:53;7.87;;;5.40;;
12535;SDS011;6334;48.696;2.114;2022-09-24T15:55:22;7.53;;;5.30;;
12535;SDS011;6334;48.696;2.114;2022-09-24T15:57:53;8.00;;;5.40;;
12535;SDS011;6334;48.696;2.114;2022-09-24T16:00:24;6.97;;;5.20;;
12535;SDS011;6334;48.696;2.114;2022-09-24T16:02:54;9.97;;;5.67;;
12535;SDS011;6334;48.696;2.114;2022-09-24T16:05:24;9.20;;;5.60;;
12535;SDS011;6334;48.696;2.114;2022-09-24T16:07:55;5.60;;;4.97;;
12535;SDS011;6334;48.696;2.114;2022-09-24T16:10:27;7.30;;;5.13;;
12535;SDS011;6334;48.696;2.114;2022-09-24T16:12:57;7.50;;;5.43;;
12535;SDS011;6334;48.696;2.114;2022-09-24T16:15:27;7.57;;;5.23;;
12535;SDS011;6334;48.696;2.114;2022-09-24T16:17:58;8.37;;;5.93;;
12535;SDS011;6334;48.696;2.114;2022-09-24T16:20:28;6.67;;;5.30;;
12535;SDS011;6334;48.696;2.114;2022-09-24T16:22:59;7.77;;;5.17;;
12535;SDS011;6334;48.696;2.114;2022-09-24T16:25:29;7.97;;;5.13;;
12535;SDS011;6334;48.696;2.114;2022-09-24T16:28:00;9.60;;;4.90;;
12535;SDS011;6334;48.696;2.114;2022-09-24T16:30:30;6.57;;;4.97;;
12535;SDS011;6334;48.696;2.114;2022-09-24T16:33:01;8.27;;;5.23;;
12535;SDS011;6334;48.696;2.114;2022-09-24T16:35:31;8.00;;;5.50;;
12535;SDS011;6334;48.696;2.114;2022-09-24T16:38:02;7.73;;;5.73;;
12535;SDS011;6334;48.696;2.114;2022-09-24T16:40:32;7.87;;;5.70;;
12535;SDS011;6334;48.696;2.114;2022-09-24T16:43:15;6.93;;;5.30;;
12535;SDS011;6334;48.696;2.114;2022-09-24T16:45:47;8.00;;;5.45;;
12535;SDS011;6334;48.696;2.114;2022-09-24T16:48:18;9.17;;;6.03;;
12535;SDS011;6334;48.696;2.114;2022-09-24T16:50:49;7.50;;;5.33;;
12535;SDS011;6334;48.696;2.114;2022-09-24T16:53:19;8.57;;;5.73;;
12535;SDS011;6334;48.696;2.114;2022-09-24T16:55:49;7.47;;;5.57;;
12535;SDS011;6334;48.696;2.114;2022-09-24T16:58:20;7.73;;;5.43;;
12535;SDS011;6334;48.696;2.114;2022-09-24T17:00:50;9.43;;;6.40;;
12535;SDS011;6334;48.696;2.114;2022-09-24T17:03:21;8.83;;;6.20;;
12535;SDS011;6334;48.696;2.114;2022-09-24T17:05:50;10.80;;;6.23;;
12535;SDS011;6334;48.696;2.114;2022-09-24T17:08:24;9.53;;;5.83;;
12535;SDS011;6334;48.696;2.114;2022-09-24T17:10:56;8.23;;;5.47;;
12535;SDS011;6334;48.696;2.114;2022-09-24T17:13:27;8.53;;;5.40;;
12535;SDS011;6334;48.696;2.114;2022-09-24T17:15:59;7.60;;;5.60;;
12535;SDS011;6334;48.696;2.114;2022-09-24T17:18:27;7.37;;;5.57;;
12535;SDS011;6334;48.696;2.114;2022-09-24T17:21:04;7.30;;;5.10;;
12535;SDS011;6334;48.696;2.114;2022-09-24T17:23:31;7.40;;;4.93;;
12535;SDS011;6334;48.696;2.114;2022-09-24T17:26:02;7.97;;;5.00;;
12535;SDS011;6334;48.696;2.114;2022-09-24T17:28:40;6.23;;;4.70;;
12535;SDS011;6334;48.696;2.114;2022-09-24T17:31:10;6.67;;;4.60;;